Time;durP1;ratioP1;P1;durP2;ratioP2;P2;SDS_P1;SDS_P2;PMS_P1;PMS_P2;Temp;Humidity;BMP_temperature;BMP_pressure;BME280_temperature;BME280_humidity;BME280_pressure;Samples;Min_cycle;Max_cycle;Signal;HPM_P1;HPM_P2
2022/06/12 00:01:07;;;;;;;5.33;2.90;;;;;16.40;101690.00;;;;4854142;29;20243;-68
2022/06/12 00:03:55;;;;;;;4.53;2.63;;;;;16.40;101690.00;;;;4855320;29;20263;-68
2022/06/12 00:06:42;;;;;;;3.00;2.70;;;;;16.40;101686.00;;;;4850728;29;20322;-69
2022/06/12 00:09:29;;;;;;;4.33;2.43;;;;;16.30;101694.00;;;;4853223;29;20219;-68
2022/06/12 00:12:15;;;;;;;3.07;2.30;;;;;16.20;101694.00;;;;4855234;29;20767;-68
2022/06/12 00:15:03;;;;;;;8.50;3.37;;;;;16.20;101696.00;;;;4854023;29;20254;-68
2022/06/12 00:17:50;;;;;;;3.77;2.50;;;;;16.00;101703.00;;;;4847427;29;20254;-70
2022/06/12 00:20:38;;;;;;;6.87;2.70;;;;;16.00;101694.00;;;;4850523;29;20207;-68
2022/06/12 00:23:25;;;;;;;4.87;2.60;;;;;15.90;101690.00;;;;4849215;29;20223;-68
2022/06/12 00:26:13;;;;;;;3.07;2.77;;;;;15.90;101695.00;;;;4854206;29;20215;-68
2022/06/12 00:29:01;;;;;;;3.90;2.57;;;;;15.90;101695.00;;;;4852625;29;20325;-68
2022/06/12 00:31:50;;;;;;;4.97;2.73;;;;;15.90;101691.00;;;;4852976;29;20815;-69
2022/06/12 00:34:41;;;;;;;4.83;2.90;;;;;15.80;101683.00;;;;4853287;29;20571;-68
2022/06/12 00:37:31;;;;;;;2.77;2.50;;;;;15.80;101684.00;;;;4852502;29;20235;-68
2022/06/12 00:40:18;;;;;;;6.20;2.73;;;;;15.60;101687.00;;;;4853477;29;20380;-69
2022/06/12 00:43:05;;;;;;;5.07;2.43;;;;;15.60;101703.00;;;;4852817;29;20227;-69
2022/06/12 00:45:54;;;;;;;5.33;2.93;;;;;15.50;101696.00;;;;4851752;29;20362;-68
2022/06/12 00:48:40;;;;;;;4.40;2.33;;;;;15.50;101696.00;;;;4850430;29;20217;-68
2022/06/12 00:51:27;;;;;;;3.10;2.40;;;;;15.50;101699.00;;;;4854731;29;20366;-68
2022/06/12 00:54:15;;;;;;;3.00;2.20;;;;;15.40;101695.00;;;;4855150;29;20299;-68
2022/06/12 00:57:04;;;;;;;4.23;2.33;;;;;15.40;101688.00;;;;4851664;29;20234;-67
2022/06/12 00:59:54;;;;;;;4.13;2.63;;;;;15.30;101689.00;;;;4848974;29;20221;-68
2022/06/12 01:02:42;;;;;;;5.87;2.63;;;;;15.20;101682.00;;;;4852583;29;20234;-69
2022/06/12 01:08:35;;;;;;;2.30;2.10;;;;;14.90;101691.00;;;;4854598;29;20648;-68
2022/06/12 01:11:23;;;;;;;5.33;2.43;;;;;14.90;101684.00;;;;4852763;29;20248;-69
2022/06/12 01:14:13;;;;;;;7.50;2.63;;;;;15.00;101682.00;;;;4853524;29;20212;-69
2022/06/12 01:17:01;;;;;;;3.97;2.40;;;;;14.90;101682.00;;;;4851986;29;20235;-69
2022/06/12 01:19:51;;;;;;;4.80;2.73;;;;;14.80;101682.00;;;;4851338;29;20208;-68
2022/06/12 01:23:25;;;;;;;6.20;2.60;;;;;14.80;101687.00;;;;4852986;29;20315;-68
2022/06/12 01:26:36;;;;;;;2.93;2.37;;;;;14.70;101675.00;;;;4841350;29;20237;-69
2022/06/12 01:29:29;;;;;;;4.50;2.30;;;;;14.70;101680.00;;;;4850957;29;20637;-69
2022/06/12 01:32:22;;;;;;;2.60;2.40;;;;;14.70;101685.00;;;;4859664;29;20289;-69
2022/06/12 01:35:20;;;;;;;4.60;2.60;;;;;14.70;101689.00;;;;4853525;29;20221;-69
2022/06/12 01:38:15;;;;;;;5.07;2.50;;;;;14.70;101684.00;;;;4852772;29;20243;-69
2022/06/12 01:41:08;;;;;;;6.30;2.70;;;;;14.70;101687.00;;;;4851615;29;20239;-69
2022/06/12 01:44:02;;;;;;;4.33;2.80;;;;;14.70;101677.00;;;;4853878;29;20229;-69
2022/06/12 01:46:57;;;;;;;5.57;2.70;;;;;14.70;101678.00;;;;4853953;29;20216;-68
2022/06/12 01:49:51;;;;;;;6.97;2.50;;;;;14.60;101680.00;;;;4851041;29;20208;-69
2022/06/12 01:52:45;;;;;;;5.33;2.83;;;;;14.50;101691.00;;;;4849306;29;20240;-69
2022/06/12 01:55:41;;;;;;;4.90;2.60;;;;;14.50;101682.00;;;;4854211;29;20204;-68
2022/06/12 01:58:32;;;;;;;3.57;2.60;;;;;14.50;101682.00;;;;4848764;29;20212;-69
2022/06/12 02:01:24;;;;;;;6.33;2.57;;;;;14.50;101682.00;;;;4854082;29;20235;-69
2022/06/12 02:04:17;;;;;;;3.77;2.63;;;;;14.50;101681.00;;;;4852748;29;21200;-68
2022/06/12 02:07:10;;;;;;;3.07;2.50;;;;;14.50;101679.00;;;;4853966;29;20229;-68
2022/06/12 02:10:00;;;;;;;5.17;2.70;;;;;14.40;101679.00;;;;4856425;29;20380;-68
2022/06/12 02:13:11;;;;;;;5.10;2.70;;;;;14.30;101670.00;;;;4858161;29;20236;-68
2022/06/12 02:16:04;;;;;;;4.77;2.93;;;;;14.30;101678.00;;;;4855060;29;20758;-68
2022/06/12 02:18:53;;;;;;;3.30;2.80;;;;;14.40;101665.00;;;;4856579;29;20304;-68
2022/06/12 02:21:47;;;;;;;3.43;2.73;;;;;14.30;101676.00;;;;4853145;29;20227;-68
2022/06/12 02:24:40;;;;;;;4.93;2.60;;;;;14.30;101672.00;;;;4852662;29;20215;-68
2022/06/12 02:27:31;;;;;;;4.80;2.47;;;;;14.20;101669.00;;;;4857496;29;20932;-68
2022/06/12 02:30:22;;;;;;;3.83;2.50;;;;;14.10;101663.00;;;;4852951;29;20768;-67
2022/06/12 02:33:13;;;;;;;5.00;2.97;;;;;14.00;101672.00;;;;4856386;29;20914;-68
2022/06/12 02:36:02;;;;;;;4.33;2.80;;;;;14.00;101676.00;;;;4855106;29;21725;-69
2022/06/12 02:38:56;;;;;;;4.53;2.70;;;;;13.90;101674.00;;;;4859163;29;20292;-69
2022/06/12 02:41:45;;;;;;;3.30;2.70;;;;;13.80;101669.00;;;;4855921;29;20345;-68
2022/06/12 02:44:38;;;;;;;4.83;2.93;;;;;13.80;101668.00;;;;4850130;29;20220;-69
2022/06/12 02:47:27;;;;;;;5.00;2.80;;;;;13.80;101665.00;;;;4850070;29;20223;-69
2022/06/12 02:50:16;;;;;;;4.60;2.80;;;;;13.70;101669.00;;;;4856861;29;20220;-68
2022/06/12 02:53:12;;;;;;;3.47;2.77;;;;;13.70;101673.00;;;;4855000;29;20592;-68
2022/06/12 02:56:07;;;;;;;4.27;2.70;;;;;13.60;101665.00;;;;4856493;29;20718;-68
2022/06/12 02:58:59;;;;;;;4.00;2.63;;;;;13.60;101669.00;;;;4853863;29;20807;-68
2022/06/12 03:01:52;;;;;;;3.90;2.53;;;;;13.50;101665.00;;;;4855402;29;20914;-68
2022/06/12 03:04:43;;;;;;;3.00;2.17;;;;;13.50;101664.00;;;;4856209;29;20243;-67
2022/06/12 03:07:30;;;;;;;4.93;2.30;;;;;13.40;101656.00;;;;4851431;29;20219;-68
2022/06/12 03:10:24;;;;;;;4.47;2.60;;;;;13.40;101657.00;;;;4856301;29;20208;-69
2022/06/12 03:13:13;;;;;;;5.73;2.53;;;;;13.30;101662.00;;;;4855717;29;20219;-68
2022/06/12 03:16:01;;;;;;;7.33;2.77;;;;;13.30;101660.00;;;;4856089;29;20717;-67
2022/06/12 03:18:51;;;;;;;4.00;2.40;;;;;13.30;101653.00;;;;4855664;29;20238;-68
2022/06/12 03:21:42;;;;;;;5.67;2.63;;;;;13.20;101656.00;;;;4855316;29;20259;-69
2022/06/12 03:24:36;;;;;;;4.07;2.50;;;;;13.20;101658.00;;;;4855782;29;20239;-67
2022/06/12 03:27:36;;;;;;;3.50;2.50;;;;;13.10;101658.00;;;;4856446;29;20586;-68
2022/06/12 03:30:30;;;;;;;5.27;2.33;;;;;13.10;101656.00;;;;4852651;29;20589;-68
2022/06/12 03:33:21;;;;;;;2.77;2.27;;;;;13.10;101667.00;;;;4856263;29;20245;-68
2022/06/12 03:36:15;;;;;;;2.70;2.20;;;;;13.10;101665.00;;;;4853656;29;20215;-68
2022/06/12 03:39:12;;;;;;;4.93;2.47;;;;;13.00;101665.00;;;;4855683;29;20292;-68
2022/06/12 03:42:11;;;;;;;2.97;2.30;;;;;13.00;101666.00;;;;4856052;29;20239;-68
2022/06/12 03:45:02;;;;;;;2.80;2.17;;;;;13.00;101666.00;;;;4853599;29;20300;-68
2022/06/12 03:47:55;;;;;;;3.13;2.10;;;;;12.90;101663.00;;;;4854714;29;20228;-67
2022/06/12 03:50:46;;;;;;;2.50;2.20;;;;;13.00;101670.00;;;;4855988;29;20615;-68
2022/06/12 03:53:42;;;;;;;2.93;2.10;;;;;13.00;101668.00;;;;4855008;29;20215;-69
2022/06/12 04:00:00;;;;;;;3.47;2.07;;;;;13.00;101670.00;;;;4815987;29;20733;-68
2022/06/12 04:02:50;;;;;;;3.03;2.30;;;;;13.00;101671.00;;;;4811614;29;20241;-68
2022/06/12 04:05:41;;;;;;;2.30;2.10;;;;;13.10;101671.00;;;;4846588;29;20221;-69
2022/06/12 04:08:32;;;;;;;2.90;2.17;;;;;13.10;101679.00;;;;4849590;29;20219;-68
2022/06/12 04:11:20;;;;;;;2.77;2.10;;;;;13.10;101674.00;;;;4855429;29;20934;-68
2022/06/12 04:14:13;;;;;;;3.30;2.30;;;;;13.20;101682.00;;;;4855797;29;21007;-68
2022/06/12 04:17:04;;;;;;;3.27;1.93;;;;;13.20;101672.00;;;;4853680;29;20800;-68
2022/06/12 04:20:04;;;;;;;3.20;2.33;;;;;13.20;101673.00;;;;4854000;29;20336;-68
2022/06/12 04:23:00;;;;;;;4.53;2.20;;;;;13.20;101668.00;;;;4855495;29;20259;-68
2022/06/12 04:25:52;;;;;;;2.93;2.13;;;;;13.20;101668.00;;;;4851788;29;20219;-67
2022/06/12 04:28:41;;;;;;;3.90;1.80;;;;;13.40;101673.00;;;;4853551;29;20303;-68
2022/06/12 04:31:29;;;;;;;3.10;1.93;;;;;13.40;101670.00;;;;4854167;29;20629;-68
2022/06/12 04:34:19;;;;;;;3.70;2.30;;;;;13.50;101670.00;;;;4854219;29;20235;-68
2022/06/12 04:37:13;;;;;;;5.63;2.20;;;;;13.50;101669.00;;;;4854108;29;20215;-68
2022/06/12 04:40:04;;;;;;;3.27;2.20;;;;;13.70;101682.00;;;;4852836;29;20239;-68
2022/06/12 04:42:50;;;;;;;6.03;2.43;;;;;13.70;101678.00;;;;4855404;29;20240;-67
2022/06/12 04:45:38;;;;;;;2.77;2.20;;;;;13.80;101676.00;;;;4854431;29;20219;-68
2022/06/12 04:48:28;;;;;;;4.33;2.30;;;;;13.80;101679.00;;;;4848980;29;20579;-68
2022/06/12 04:51:15;;;;;;;4.33;2.90;;;;;13.90;101678.00;;;;4853731;29;20878;-68
2022/06/12 04:54:01;;;;;;;3.10;2.50;;;;;14.00;101675.00;;;;4854290;29;20308;-68
2022/06/12 04:56:49;;;;;;;3.47;2.47;;;;;14.20;101673.00;;;;4851268;29;20854;-68
2022/06/12 04:59:36;;;;;;;2.80;2.47;;;;;14.20;101670.00;;;;4851441;29;20227;-68
2022/06/12 05:02:23;;;;;;;3.73;2.57;;;;;14.30;101675.00;;;;4850391;29;20239;-68
2022/06/12 05:05:10;;;;;;;3.33;2.60;;;;;14.40;101675.00;;;;4852471;29;20584;-67
2022/06/12 05:07:57;;;;;;;5.17;3.00;;;;;14.50;101676.00;;;;4854204;29;20308;-68
2022/06/12 05:10:45;;;;;;;8.10;3.23;;;;;14.60;101679.00;;;;4854386;29;20574;-68
2022/06/12 05:13:33;;;;;;;4.37;3.40;;;;;14.70;101682.00;;;;4850555;29;20219;-68
2022/06/12 05:16:28;;;;;;;4.53;3.07;;;;;14.80;101669.00;;;;4854190;29;20220;-67
2022/06/12 05:19:17;;;;;;;5.73;3.67;;;;;14.90;101682.00;;;;4854123;29;20308;-67
2022/06/12 05:22:06;;;;;;;6.73;3.87;;;;;15.10;101673.00;;;;4852617;29;20718;-67
2022/06/12 05:24:53;;;;;;;4.87;3.93;;;;;15.10;101676.00;;;;4853177;29;20245;-68
2022/06/12 05:27:39;;;;;;;5.67;4.03;;;;;15.20;101672.00;;;;4855228;29;20759;-67
2022/06/12 05:30:29;;;;;;;8.27;4.23;;;;;15.30;101673.00;;;;4852843;29;20273;-68
2022/06/12 05:33:15;;;;;;;9.73;4.07;;;;;15.40;101663.00;;;;4853663;29;20368;-68
2022/06/12 05:36:01;;;;;;;7.63;3.70;;;;;15.50;101672.00;;;;4853516;29;20217;-67
2022/06/12 05:38:48;;;;;;;6.70;3.77;;;;;15.60;101672.00;;;;4853553;29;20244;-68
2022/06/12 05:41:34;;;;;;;5.93;3.83;;;;;15.70;101666.00;;;;4848022;29;20239;-68
2022/06/12 05:44:21;;;;;;;5.50;3.70;;;;;15.80;101662.00;;;;4851763;29;20367;-67
2022/06/12 05:47:15;;;;;;;6.73;3.60;;;;;16.00;101674.00;;;;4853607;29;20225;-68
2022/06/12 05:50:01;;;;;;;9.27;3.57;;;;;16.00;101666.00;;;;4854494;29;20800;-68
2022/06/12 05:52:48;;;;;;;5.30;3.50;;;;;16.10;101666.00;;;;4852865;29;20237;-67
2022/06/12 05:55:34;;;;;;;6.87;3.00;;;;;16.20;101670.00;;;;4848808;29;20218;-67
2022/06/12 05:58:21;;;;;;;6.53;3.67;;;;;16.20;101676.00;;;;4853740;29;20294;-67
2022/06/12 06:01:10;;;;;;;5.10;3.30;;;;;16.40;101677.00;;;;4853024;29;20241;-68
2022/06/12 06:03:58;;;;;;;6.00;2.63;;;;;16.50;101678.00;;;;4853528;29;20311;-68
2022/06/12 06:06:47;;;;;;;5.43;2.60;;;;;16.60;101678.00;;;;4850575;29;20315;-68
2022/06/12 06:09:34;;;;;;;6.10;2.50;;;;;16.60;101673.00;;;;4849762;29;20231;-68
2022/06/12 06:12:20;;;;;;;4.70;2.60;;;;;16.70;101678.00;;;;4854346;29;20242;-68
2022/06/12 06:15:08;;;;;;;5.23;2.63;;;;;16.70;101675.00;;;;4852773;29;20352;-68
2022/06/12 06:17:54;;;;;;;4.63;2.40;;;;;16.80;101680.00;;;;4853546;29;20230;-68
2022/06/12 06:20:42;;;;;;;7.43;2.60;;;;;16.90;101680.00;;;;4852955;29;20218;-68
2022/06/12 06:23:28;;;;;;;5.20;2.13;;;;;17.00;101681.00;;;;4851208;29;20222;-68
2022/06/12 06:26:14;;;;;;;4.83;2.10;;;;;17.10;101680.00;;;;4852835;29;20740;-68
2022/06/12 06:29:00;;;;;;;6.63;2.40;;;;;17.20;101679.00;;;;4850739;29;20589;-68
2022/06/12 06:31:47;;;;;;;4.37;2.40;;;;;17.20;101676.00;;;;4853423;29;20642;-68
2022/06/12 06:34:33;;;;;;;4.80;2.17;;;;;17.20;101679.00;;;;4853896;29;20712;-67
2022/06/12 06:37:20;;;;;;;8.07;2.33;;;;;17.20;101683.00;;;;4853215;29;20219;-68
2022/06/12 06:40:09;;;;;;;4.30;2.40;;;;;17.30;101675.00;;;;4851425;29;20244;-68
2022/06/12 06:42:55;;;;;;;5.50;2.57;;;;;17.50;101679.00;;;;4852641;29;20263;-68
2022/06/12 06:48:46;;;;;;;10.43;4.87;;;;;17.50;101686.00;;;;4853458;29;20365;-67
2022/06/12 06:51:33;;;;;;;9.73;3.40;;;;;17.60;101682.00;;;;4853054;29;20332;-68
2022/06/12 06:54:21;;;;;;;4.23;2.00;;;;;17.70;101684.00;;;;4855175;29;20720;-67
2022/06/12 06:57:09;;;;;;;8.17;2.10;;;;;17.90;101685.00;;;;4856375;29;20349;-68
2022/06/12 06:59:55;;;;;;;3.87;1.50;;;;;17.80;101685.00;;;;4853566;29;20236;-70
2022/06/12 07:02:41;;;;;;;7.33;2.23;;;;;17.90;101690.00;;;;4855666;29;20790;-68
2022/06/12 07:05:29;;;;;;;5.93;1.60;;;;;17.90;101688.00;;;;4855860;29;20294;-68
2022/06/12 07:08:17;;;;;;;5.17;1.73;;;;;18.00;101692.00;;;;4854932;29;20358;-68
2022/06/12 07:11:05;;;;;;;4.27;1.60;;;;;18.10;101692.00;;;;4856039;29;20247;-68
2022/06/12 07:13:52;;;;;;;6.20;1.50;;;;;18.30;101693.00;;;;4854690;29;20235;-67
2022/06/12 07:16:40;;;;;;;4.77;1.70;;;;;18.40;101688.00;;;;4855145;29;20239;-70
2022/06/12 07:19:27;;;;;;;2.93;1.67;;;;;18.40;101690.00;;;;4856942;29;20235;-70
2022/06/12 07:22:14;;;;;;;4.07;1.77;;;;;18.50;101686.00;;;;4855084;29;20316;-69
2022/06/12 07:25:00;;;;;;;4.10;1.80;;;;;18.50;101692.00;;;;4856690;29;20223;-69
2022/06/12 07:27:48;;;;;;;3.90;1.90;;;;;18.50;101691.00;;;;4852388;29;20567;-68
2022/06/12 07:30:34;;;;;;;3.57;1.70;;;;;18.60;101688.00;;;;4853447;29;20227;-69
2022/06/12 07:33:21;;;;;;;4.93;1.70;;;;;18.60;101682.00;;;;4851235;29;20367;-69
2022/06/12 07:36:09;;;;;;;4.10;1.70;;;;;18.80;101688.00;;;;4854647;29;20220;-69
2022/06/12 07:38:56;;;;;;;5.57;1.70;;;;;18.70;101700.00;;;;4855814;29;20227;-70
2022/06/12 07:42:01;;;;;;;4.27;1.93;;;;;18.80;101698.00;;;;4855814;29;20242;-69
2022/06/12 07:44:49;;;;;;;10.57;4.40;;;;;19.00;101699.00;;;;4851457;29;20709;-69
2022/06/12 07:47:36;;;;;;;5.93;2.83;;;;;19.10;101696.00;;;;4854666;29;20706;-69
2022/06/12 07:50:22;;;;;;;3.60;1.83;;;;;19.20;101705.00;;;;4849384;29;20319;-70
2022/06/12 07:53:09;;;;;;;5.37;2.07;;;;;19.10;101697.00;;;;4854480;29;20216;-68
2022/06/12 07:55:56;;;;;;;4.33;1.80;;;;;19.20;101703.00;;;;4855431;29;20258;-68
2022/06/12 07:58:43;;;;;;;3.97;1.50;;;;;19.30;101686.00;;;;4852200;29;20796;-68
2022/06/12 08:01:31;;;;;;;5.43;1.73;;;;;19.60;101703.00;;;;4854630;29;20812;-69
2022/06/12 08:04:18;;;;;;;3.90;1.63;;;;;19.70;101706.00;;;;4854749;29;20208;-68
2022/06/12 08:07:05;;;;;;;2.77;1.70;;;;;19.80;101701.00;;;;4853188;29;20803;-69
2022/06/12 08:09:51;;;;;;;8.07;2.00;;;;;19.90;101694.00;;;;4854703;29;20224;-69
2022/06/12 08:12:40;;;;;;;6.17;2.90;;;;;20.00;101700.00;;;;4854775;29;20239;-70
2022/06/12 08:15:29;;;;;;;5.73;2.10;;;;;20.10;101696.00;;;;4855729;29;20235;-69
2022/06/12 08:18:17;;;;;;;5.83;1.70;;;;;20.40;101697.00;;;;4854406;29;20220;-70
2022/06/12 08:21:08;;;;;;;5.47;1.53;;;;;20.40;101693.00;;;;4854129;29;21294;-69
2022/06/12 08:23:58;;;;;;;4.40;1.63;;;;;20.50;101704.00;;;;4854296;29;20212;-69
2022/06/12 08:26:45;;;;;;;5.87;1.70;;;;;20.70;101698.00;;;;4855665;29;20357;-68
2022/06/12 08:29:31;;;;;;;5.13;1.30;;;;;20.70;101692.00;;;;4848603;29;20219;-69
2022/06/12 08:32:21;;;;;;;4.13;1.40;;;;;20.80;101695.00;;;;4855048;29;20226;-69
2022/06/12 08:35:12;;;;;;;2.97;1.40;;;;;21.00;101704.00;;;;4854689;29;20717;-68
2022/06/12 08:37:59;;;;;;;1.53;1.37;;;;;21.10;101700.00;;;;4855651;29;20235;-70
2022/06/12 08:40:53;;;;;;;3.33;1.50;;;;;21.10;101693.00;;;;4854646;29;20236;-70
2022/06/12 08:43:44;;;;;;;6.40;1.37;;;;;21.30;101696.00;;;;4848892;29;20208;-67
2022/06/12 08:46:36;;;;;;;3.40;1.30;;;;;21.40;101691.00;;;;4855418;29;20875;-66
2022/06/12 08:49:27;;;;;;;6.03;1.43;;;;;21.60;101687.00;;;;4852309;29;20375;-69
2022/06/12 08:52:20;;;;;;;4.90;1.17;;;;;21.60;101695.00;;;;4855024;29;20619;-67
2022/06/12 08:55:15;;;;;;;4.63;1.53;;;;;21.70;101688.00;;;;4854235;29;20361;-70
2022/06/12 08:58:07;;;;;;;4.40;1.33;;;;;21.70;101681.00;;;;4854515;29;20227;-68
2022/06/12 09:00:54;;;;;;;3.77;1.20;;;;;21.90;101682.00;;;;4853563;29;20355;-68
2022/06/12 09:03:44;;;;;;;4.30;1.47;;;;;22.00;101677.00;;;;4853422;29;20757;-67
2022/06/12 09:06:44;;;;;;;2.53;1.30;;;;;22.20;101673.00;;;;4853595;29;20742;-69
2022/06/12 09:09:41;;;;;;;4.50;1.00;;;;;22.30;101670.00;;;;4853345;29;20209;-69
2022/06/12 09:12:31;;;;;;;2.70;1.20;;;;;22.40;101672.00;;;;4852504;29;20265;-67
2022/06/12 09:15:26;;;;;;;3.00;1.20;;;;;22.60;101665.00;;;;4854388;29;21018;-68
2022/06/12 09:18:22;;;;;;;4.83;1.40;;;;;22.60;101667.00;;;;4854410;29;20319;-69
2022/06/12 09:21:14;;;;;;;2.93;1.20;;;;;22.60;101672.00;;;;4850396;29;20323;-70
2022/06/12 09:24:06;;;;;;;5.23;1.60;;;;;22.60;101659.00;;;;4854130;29;20218;-69
2022/06/12 09:27:05;;;;;;;3.73;1.53;;;;;22.80;101663.00;;;;4852818;29;20217;-70
2022/06/12 09:29:59;;;;;;;5.00;1.60;;;;;22.90;101664.00;;;;4852078;29;20226;-70
2022/06/12 09:32:55;;;;;;;3.83;1.50;;;;;23.10;101658.00;;;;4854445;29;20238;-70
2022/06/12 09:35:54;;;;;;;4.27;1.10;;;;;23.20;101659.00;;;;4850128;29;20239;-70
2022/06/12 09:38:51;;;;;;;3.03;1.40;;;;;23.40;101668.00;;;;4849207;29;20235;-70
2022/06/12 09:41:46;;;;;;;5.13;1.30;;;;;23.50;101666.00;;;;4848928;29;20284;-70
2022/06/12 09:44:45;;;;;;;2.20;1.13;;;;;23.40;101663.00;;;;4853063;29;20308;-71
2022/06/12 09:47:42;;;;;;;5.17;1.30;;;;;23.70;101662.00;;;;4853993;29;20320;-70
2022/06/12 09:50:38;;;;;;;3.37;1.40;;;;;23.90;101660.00;;;;4854209;29;20770;-70
2022/06/12 09:53:47;;;;;;;3.60;1.30;;;;;23.80;101658.00;;;;4847502;29;20277;-71
2022/06/12 09:56:39;;;;;;;3.27;1.10;;;;;23.90;101664.00;;;;4848645;29;20220;-71
2022/06/12 09:59:33;;;;;;;3.83;1.37;;;;;23.90;101654.00;;;;4849642;29;20257;-70
2022/06/12 10:02:26;;;;;;;6.67;1.57;;;;;23.90;101658.00;;;;4854085;29;20243;-69
2022/06/12 10:05:16;;;;;;;2.13;1.10;;;;;24.00;101654.00;;;;4851399;29;20304;-70
2022/06/12 10:08:10;;;;;;;2.33;1.43;;;;;24.00;101655.00;;;;4851341;29;20223;-71
2022/06/12 10:11:02;;;;;;;4.47;1.40;;;;;24.00;101648.00;;;;4851321;29;20978;-71
2022/06/12 10:13:53;;;;;;;3.53;1.23;;;;;23.80;101641.00;;;;4847478;29;20286;-73
2022/06/12 10:16:43;;;;;;;5.37;1.20;;;;;23.80;101642.00;;;;4849040;29;20338;-70
2022/06/12 10:19:54;;;;;;;5.43;1.60;;;;;23.80;101640.00;;;;4848139;29;20231;-71
2022/06/12 10:22:43;;;;;;;5.20;1.73;;;;;23.60;101649.00;;;;4848987;29;20761;-71
2022/06/12 10:25:33;;;;;;;4.67;1.80;;;;;23.90;101650.00;;;;4847316;29;20212;-71
2022/06/12 10:28:27;;;;;;;6.13;1.40;;;;;24.20;101652.00;;;;4850951;29;20246;-71
2022/06/12 10:31:21;;;;;;;5.47;1.73;;;;;24.20;101648.00;;;;4854806;29;20421;-72
2022/06/12 10:34:15;;;;;;;2.67;1.30;;;;;24.10;101647.00;;;;4853676;29;20295;-71
2022/06/12 10:37:12;;;;;;;4.27;1.73;;;;;24.60;101634.00;;;;4853128;29;20714;-72
2022/06/12 10:40:03;;;;;;;3.33;1.40;;;;;24.20;101638.00;;;;4852016;29;20228;-70
2022/06/12 10:42:52;;;;;;;5.07;1.70;;;;;24.20;101653.00;;;;4851423;29;20252;-70
2022/06/12 10:45:40;;;;;;;4.37;1.50;;;;;24.20;101639.00;;;;4850944;29;20211;-69
2022/06/12 10:48:30;;;;;;;3.77;1.20;;;;;24.30;101637.00;;;;4848687;29;20208;-69
2022/06/12 10:51:24;;;;;;;2.90;1.43;;;;;24.60;101644.00;;;;4854039;29;20617;-67
2022/06/12 10:54:16;;;;;;;6.67;1.83;;;;;24.60;101634.00;;;;4853624;29;20224;-69
2022/06/12 10:57:11;;;;;;;5.07;1.60;;;;;24.70;101636.00;;;;4851714;29;20220;-71
2022/06/12 11:00:02;;;;;;;7.70;1.70;;;;;24.70;101632.00;;;;4853252;29;20719;-67
2022/06/12 11:02:59;;;;;;;5.97;1.53;;;;;24.80;101636.00;;;;4853728;29;20716;-68
2022/06/12 11:06:04;;;;;;;4.40;1.53;;;;;24.90;101639.00;;;;4853811;29;20249;-70
2022/06/12 11:09:09;;;;;;;4.87;1.80;;;;;25.20;101635.00;;;;4852811;29;20877;-68
2022/06/12 11:12:13;;;;;;;3.47;1.33;;;;;25.20;101624.00;;;;4853478;29;20816;-68
2022/06/12 11:15:22;;;;;;;6.63;1.70;;;;;25.00;101621.00;;;;4854004;29;20306;-68
2022/06/12 11:18:18;;;;;;;3.47;1.70;;;;;24.40;101626.00;;;;4855924;29;20227;-68
2022/06/12 11:21:14;;;;;;;5.93;1.60;;;;;24.20;101625.00;;;;4856112;29;20242;-68
2022/06/12 11:24:12;;;;;;;3.77;1.87;;;;;23.90;101631.00;;;;4855781;29;20224;-68
2022/06/12 11:27:27;;;;;;;4.90;1.73;;;;;23.90;101630.00;;;;4855304;29;20292;-68
2022/06/12 11:30:22;;;;;;;3.80;1.60;;;;;23.80;101633.00;;;;4856023;29;20261;-68
2022/06/12 11:33:27;;;;;;;4.37;1.70;;;;;23.60;101629.00;;;;4855785;29;20228;-68
2022/06/12 11:36:25;;;;;;;2.43;1.77;;;;;23.50;101632.00;;;;4854182;29;20235;-68
2022/06/12 11:39:21;;;;;;;6.63;1.70;;;;;23.60;101627.00;;;;4861458;29;20244;-68
2022/06/12 11:42:30;;;;;;;3.93;1.60;;;;;23.40;101624.00;;;;4854290;29;20259;-68
2022/06/12 11:45:26;;;;;;;2.20;1.60;;;;;23.30;101626.00;;;;4855302;29;20219;-67
2022/06/12 11:48:34;;;;;;;4.30;2.20;;;;;23.20;101631.00;;;;4854285;29;20291;-68
2022/06/12 11:51:29;;;;;;;5.67;2.10;;;;;23.10;101628.00;;;;4855307;29;20743;-68
2022/06/12 11:54:35;;;;;;;6.30;2.07;;;;;23.20;101616.00;;;;4855099;29;20223;-67
2022/06/12 11:57:30;;;;;;;3.07;2.03;;;;;23.80;101622.00;;;;4850750;29;20218;-68
2022/06/12 12:00:19;;;;;;;4.27;1.70;;;;;24.60;101608.00;;;;4854831;29;20215;-68
2022/06/12 12:03:46;;;;;;;4.77;2.10;;;;;25.10;101616.00;;;;4854417;29;20320;-70
2022/06/12 12:06:51;;;;;;;3.50;1.87;;;;;25.00;101604.00;;;;4851455;29;20815;-69
2022/06/12 12:09:49;;;;;;;3.57;1.90;;;;;24.50;101613.00;;;;4855899;29;20263;-68
2022/06/12 12:12:41;;;;;;;5.93;1.80;;;;;24.20;101621.00;;;;4850284;29;20235;-67
2022/06/12 12:15:31;;;;;;;2.93;1.60;;;;;24.40;101618.00;;;;4855094;29;20701;-69
2022/06/12 12:18:28;;;;;;;2.47;1.50;;;;;24.90;101607.00;;;;4855012;29;20710;-69
2022/06/12 12:21:23;;;;;;;2.17;1.50;;;;;24.80;101624.00;;;;4854324;29;20243;-69
2022/06/12 12:24:16;;;;;;;3.40;1.77;;;;;24.50;101626.00;;;;4853897;29;20224;-67
2022/06/12 12:27:07;;;;;;;6.57;2.03;;;;;23.90;101619.00;;;;4855577;29;20362;-68
2022/06/12 12:29:56;;;;;;;3.77;1.70;;;;;24.40;101608.00;;;;4855909;29;20590;-69
2022/06/12 12:32:42;;;;;;;5.20;1.90;;;;;25.00;101606.00;;;;4849840;29;20269;-69
2022/06/12 12:41:45;;;;;;;3.10;1.80;;;;;24.40;101598.00;;;;4848972;29;20236;-69
2022/06/12 12:44:35;;;;;;;4.50;2.00;;;;;24.90;101600.00;;;;4848777;29;20220;-70
2022/06/12 12:47:26;;;;;;;4.53;1.70;;;;;25.70;101603.00;;;;4850696;29;20273;-69
2022/06/12 12:50:16;;;;;;;4.83;1.50;;;;;25.30;101608.00;;;;4854996;29;20234;-69
2022/06/12 12:53:02;;;;;;;5.03;1.53;;;;;24.90;101601.00;;;;4853401;29;20328;-69
2022/06/12 12:55:59;;;;;;;1.97;1.53;;;;;24.80;101604.00;;;;4854065;29;20227;-68
2022/06/12 12:58:57;;;;;;;9.57;1.80;;;;;25.40;101600.00;;;;4850333;29;20419;-69
2022/06/12 13:01:46;;;;;;;4.53;1.50;;;;;25.90;101593.00;;;;4852847;29;20626;-69
2022/06/12 13:04:35;;;;;;;6.53;2.00;;;;;26.40;101591.00;;;;4854076;29;20336;-66
2022/06/12 13:07:49;;;;;;;2.97;1.60;;;;;26.70;101587.00;;;;4854551;29;20216;-70
2022/06/12 13:10:50;;;;;;;2.20;1.43;;;;;27.00;101577.00;;;;4851954;29;20219;-70
2022/06/12 13:14:04;;;;;;;4.10;1.60;;;;;27.30;101572.00;;;;4848273;29;20849;-68
2022/06/12 13:17:02;;;;;;;4.17;1.33;;;;;27.60;101570.00;;;;4854824;29;20264;-68
2022/06/12 13:20:03;;;;;;;4.40;1.50;;;;;27.90;101569.00;;;;4852762;29;20238;-68
2022/06/12 13:23:02;;;;;;;4.13;1.50;;;;;28.10;101577.00;;;;4853591;29;20258;-67
2022/06/12 13:25:51;;;;;;;5.85;1.48;;;;;28.00;101584.00;;;;4850420;29;20731;-67
2022/06/12 13:28:37;;;;;;;2.47;1.27;;;;;28.30;101571.00;;;;4853818;29;20215;-69
2022/06/12 13:31:23;;;;;;;5.47;1.40;;;;;28.70;101571.00;;;;4852822;29;20231;-69
2022/06/12 13:34:18;;;;;;;2.10;1.25;;;;;28.30;101572.00;;;;4852427;29;20696;-69
2022/06/12 13:37:13;;;;;;;3.53;1.30;;;;;28.50;101564.00;;;;4853060;29;20220;-70
2022/06/12 13:40:01;;;;;;;2.20;1.20;;;;;28.30;101568.00;;;;4854070;29;20215;-68
2022/06/12 13:42:47;;;;;;;2.97;1.52;;;;;28.60;101564.00;;;;4852879;29;20236;-69
2022/06/12 13:45:33;;;;;;;3.65;1.45;;;;;28.70;101559.00;;;;4854495;29;20304;-69
2022/06/12 13:48:22;;;;;;;5.55;2.13;;;;;28.50;101560.00;;;;4852164;29;20300;-68
2022/06/12 13:51:20;;;;;;;5.47;1.88;;;;;29.10;101564.00;;;;4853491;29;20660;-70
2022/06/12 13:54:15;;;;;;;3.47;1.45;;;;;28.80;101555.00;;;;4851828;29;20219;-68
2022/06/12 13:57:08;;;;;;;2.55;1.40;;;;;29.40;101547.00;;;;4852299;29;20219;-70
2022/06/12 13:59:54;;;;;;;2.30;1.40;;;;;29.40;101543.00;;;;4850271;29;20231;-69
2022/06/12 14:02:42;;;;;;;2.40;1.60;;;;;29.40;101544.00;;;;4851634;29;20243;-69
2022/06/12 14:05:31;;;;;;;2.78;1.52;;;;;29.10;101543.00;;;;4853721;29;20839;-69
2022/06/12 14:08:18;;;;;;;3.45;1.52;;;;;28.70;101547.00;;;;4852330;29;20212;-69
2022/06/12 14:11:07;;;;;;;4.03;1.80;;;;;29.00;101539.00;;;;4853119;29;20243;-70
2022/06/12 14:13:55;;;;;;;4.97;1.67;;;;;29.50;101542.00;;;;4851780;29;20223;-68
2022/06/12 14:16:46;;;;;;;4.55;1.55;;;;;30.80;101538.00;;;;4852925;29;20265;-70
2022/06/12 14:19:33;;;;;;;3.78;1.63;;;;;31.30;101540.00;;;;4853114;29;20220;-69
2022/06/12 14:22:20;;;;;;;3.17;1.45;;;;;32.10;101540.00;;;;4853096;29;20242;-70
2022/06/12 14:25:18;;;;;;;5.65;1.70;;;;;31.90;101546.00;;;;4852794;29;20286;-70